Terminal Aerodrome Forecast
Issued by NWS

Home | Current Version | Previous Version | Text Only | Print | Product List | Glossary On
Versions: 1 2 3 4 5 6 7 8 9 10 11 12 13 14 15 16
580
FTUS41 KALY 231720
TAFPSF
TAF
KPSF 231720Z 2318/2418 30010G18KT P6SM VCSH SCT050 SCT100
     FM232300 30007KT P6SM FEW050 SCT100 SCT250
     FM240300 34004KT P6SM FEW030
     FM240600 VRB03KT 3SM BR FEW030
     FM241200 30007KT P6SM SKC=

USA.gov is the U.S. government's official web portal to all federal, state and local government web resources and services.